sensor_id;sensor_type;location;lat;lon;timestamp;pressure;altitude;pressure_sealevel;temperature;humidity
50702;BME280;36670;50.094;8.496;2023-11-19T00:00:18;100159.34;;;11.66;70.91
50702;BME280;36670;50.094;8.496;2023-11-19T00:02:44;100141.63;;;11.61;70.54
50702;BME280;36670;50.094;8.496;2023-11-19T00:05:10;100143.94;;;11.75;69.94
50702;BME280;36670;50.094;8.496;2023-11-19T00:07:37;100135.59;;;11.70;70.11
50702;BME280;36670;50.094;8.496;2023-11-19T00:10:04;100136.75;;;11.74;70.70
50702;BME280;36670;50.094;8.496;2023-11-19T00:12:32;100147.34;;;11.50;69.99
50702;BME280;36670;50.094;8.496;2023-11-19T00:14:57;100154.41;;;11.73;70.03
50702;BME280;36670;50.094;8.496;2023-11-19T00:17:23;100146.78;;;11.85;70.00
50702;BME280;36670;50.094;8.496;2023-11-19T00:19:48;100157.69;;;11.97;69.08
50702;BME280;36670;50.094;8.496;2023-11-19T00:22:16;100163.06;;;11.49;70.11
50702;BME280;36670;50.094;8.496;2023-11-19T00:24:41;100164.66;;;11.72;70.00
50702;BME280;36670;50.094;8.496;2023-11-19T00:27:07;100163.50;;;11.95;69.83
50702;BME280;36670;50.094;8.496;2023-11-19T00:29:33;100163.22;;;11.97;69.52
50702;BME280;36670;50.094;8.496;2023-11-19T00:31:58;100155.66;;;11.87;69.73
50702;BME280;36670;50.094;8.496;2023-11-19T00:34:24;100155.31;;;12.11;69.05
50702;BME280;36670;50.094;8.496;2023-11-19T00:36:49;100144.00;;;11.85;69.59
50702;BME280;36670;50.094;8.496;2023-11-19T00:39:15;100134.31;;;11.83;69.48
50702;BME280;36670;50.094;8.496;2023-11-19T00:41:41;100124.22;;;11.66;69.95
50702;BME280;36670;50.094;8.496;2023-11-19T00:44:06;100119.06;;;11.75;70.55
50702;BME280;36670;50.094;8.496;2023-11-19T00:46:31;100122.59;;;12.08;69.53
50702;BME280;36670;50.094;8.496;2023-11-19T00:48:58;100134.03;;;12.22;69.05
50702;BME280;36670;50.094;8.496;2023-11-19T00:51:25;100155.56;;;12.09;69.01
50702;BME280;36670;50.094;8.496;2023-11-19T00:53:51;100148.50;;;11.91;69.91
50702;BME280;36670;50.094;8.496;2023-11-19T00:56:18;100130.50;;;11.89;70.49
50702;BME280;36670;50.094;8.496;2023-11-19T00:58:44;100116.56;;;11.78;70.78
50702;BME280;36670;50.094;8.496;2023-11-19T01:01:11;100106.59;;;11.72;70.25
50702;BME280;36670;50.094;8.496;2023-11-19T01:03:37;100105.25;;;11.80;70.10
50702;BME280;36670;50.094;8.496;2023-11-19T01:06:03;100093.66;;;11.83;70.37
50702;BME280;36670;50.094;8.496;2023-11-19T01:08:28;100083.75;;;11.92;70.66
50702;BME280;36670;50.094;8.496;2023-11-19T01:10:54;100082.06;;;11.86;70.38
50702;BME280;36670;50.094;8.496;2023-11-19T01:13:19;100068.69;;;11.73;70.17
50702;BME280;36670;50.094;8.496;2023-11-19T01:15:45;100085.63;;;11.44;70.84
50702;BME280;36670;50.094;8.496;2023-11-19T01:18:10;100077.69;;;11.53;71.55
50702;BME280;36670;50.094;8.496;2023-11-19T01:20:36;100053.94;;;11.57;71.49
50702;BME280;36670;50.094;8.496;2023-11-19T01:23:02;100073.81;;;11.21;72.14
50702;BME280;36670;50.094;8.496;2023-11-19T01:25:27;100060.13;;;11.37;71.83
50702;BME280;36670;50.094;8.496;2023-11-19T01:27:53;100081.16;;;11.10;72.55
50702;BME280;36670;50.094;8.496;2023-11-19T01:30:18;100109.34;;;11.72;71.29
50702;BME280;36670;50.094;8.496;2023-11-19T01:32:44;100066.06;;;11.93;70.70
50702;BME280;36670;50.094;8.496;2023-11-19T01:35:10;100096.38;;;11.78;70.88
50702;BME280;36670;50.094;8.496;2023-11-19T01:37:35;100087.63;;;11.91;71.32
50702;BME280;36670;50.094;8.496;2023-11-19T01:40:02;100077.25;;;12.09;70.41
50702;BME280;36670;50.094;8.496;2023-11-19T01:42:29;100067.59;;;12.17;70.55
50702;BME280;36670;50.094;8.496;2023-11-19T01:44:58;100067.69;;;12.32;69.75
50702;BME280;36670;50.094;8.496;2023-11-19T01:47:28;100082.31;;;12.27;70.19
50702;BME280;36670;50.094;8.496;2023-11-19T01:49:56;100084.88;;;12.39;69.18
50702;BME280;36670;50.094;8.496;2023-11-19T01:52:22;100067.97;;;12.41;69.16
50702;BME280;36670;50.094;8.496;2023-11-19T01:54:48;100067.06;;;12.20;69.90
50702;BME280;36670;50.094;8.496;2023-11-19T01:57:14;100048.44;;;12.05;69.97
50702;BME280;36670;50.094;8.496;2023-11-19T01:59:39;100031.28;;;12.08;69.98
50702;BME280;36670;50.094;8.496;2023-11-19T02:02:05;100031.56;;;12.01;69.97
50702;BME280;36670;50.094;8.496;2023-11-19T02:04:31;100030.59;;;11.85;70.47
50702;BME280;36670;50.094;8.496;2023-11-19T02:06:58;100024.91;;;11.97;70.63
50702;BME280;36670;50.094;8.496;2023-11-19T02:09:24;100011.31;;;11.53;71.70
50702;BME280;36670;50.094;8.496;2023-11-19T02:11:49;100013.88;;;11.65;71.13
50702;BME280;36670;50.094;8.496;2023-11-19T02:14:17;100003.84;;;11.53;72.14
50702;BME280;36670;50.094;8.496;2023-11-19T02:16:43;100004.75;;;11.64;71.66
50702;BME280;36670;50.094;8.496;2023-11-19T02:19:08;100002.03;;;11.69;71.13
50702;BME280;36670;50.094;8.496;2023-11-19T02:21:35;100006.69;;;11.64;72.18
50702;BME280;36670;50.094;8.496;2023-11-19T02:24:05;99995.03;;;11.56;71.67
50702;BME280;36670;50.094;8.496;2023-11-19T02:26:37;99988.47;;;11.73;72.23
50702;BME280;36670;50.094;8.496;2023-11-19T02:29:04;100009.22;;;11.70;71.80
50702;BME280;36670;50.094;8.496;2023-11-19T02:31:31;99993.44;;;11.66;71.62
50702;BME280;36670;50.094;8.496;2023-11-19T02:33:57;99991.84;;;11.75;72.14
50702;BME280;36670;50.094;8.496;2023-11-19T02:36:22;100000.59;;;11.61;71.88
50702;BME280;36670;50.094;8.496;2023-11-19T02:38:48;99995.66;;;11.69;71.82
50702;BME280;36670;50.094;8.496;2023-11-19T02:41:14;99989.59;;;11.72;72.28
50702;BME280;36670;50.094;8.496;2023-11-19T02:43:39;99985.38;;;11.59;72.06
50702;BME280;36670;50.094;8.496;2023-11-19T02:46:05;99988.38;;;12.00;71.51
50702;BME280;36670;50.094;8.496;2023-11-19T02:48:37;99974.97;;;11.76;71.68
50702;BME280;36670;50.094;8.496;2023-11-19T02:51:03;99973.00;;;11.72;72.35
50702;BME280;36670;50.094;8.496;2023-11-19T02:53:32;99975.84;;;11.87;71.45
50702;BME280;36670;50.094;8.496;2023-11-19T02:55:57;99981.94;;;11.89;71.54
50702;BME280;36670;50.094;8.496;2023-11-19T02:58:31;99981.72;;;11.96;71.54
50702;BME280;36670;50.094;8.496;2023-11-19T03:00:56;99983.31;;;11.87;71.38
50702;BME280;36670;50.094;8.496;2023-11-19T03:03:26;99984.13;;;11.82;71.83
50702;BME280;36670;50.094;8.496;2023-11-19T03:06:04;99967.50;;;11.77;72.13
50702;BME280;36670;50.094;8.496;2023-11-19T03:08:30;99968.06;;;11.79;71.95
50702;BME280;36670;50.094;8.496;2023-11-19T03:10:56;99957.59;;;11.86;71.96
50702;BME280;36670;50.094;8.496;2023-11-19T03:13:21;99966.69;;;11.82;71.99
50702;BME280;36670;50.094;8.496;2023-11-19T03:15:47;99956.66;;;11.65;72.86
50702;BME280;36670;50.094;8.496;2023-11-19T03:18:12;99961.91;;;11.67;73.07
50702;BME280;36670;50.094;8.496;2023-11-19T03:20:38;99960.91;;;11.83;72.33
50702;BME280;36670;50.094;8.496;2023-11-19T03:23:03;99959.06;;;12.04;71.91
50702;BME280;36670;50.094;8.496;2023-11-19T03:25:28;99967.97;;;12.17;71.40
50702;BME280;36670;50.094;8.496;2023-11-19T03:27:59;99954.78;;;12.44;70.61
50702;BME280;36670;50.094;8.496;2023-11-19T03:30:25;99972.50;;;12.54;70.79
50702;BME280;36670;50.094;8.496;2023-11-19T03:32:50;99963.00;;;12.24;71.02
50702;BME280;36670;50.094;8.496;2023-11-19T03:35:16;99973.25;;;12.28;71.48
50702;BME280;36670;50.094;8.496;2023-11-19T03:37:41;99971.03;;;12.25;70.87
50702;BME280;36670;50.094;8.496;2023-11-19T03:40:08;99966.63;;;12.29;71.42
50702;BME280;36670;50.094;8.496;2023-11-19T03:42:34;99957.50;;;12.29;70.81
50702;BME280;36670;50.094;8.496;2023-11-19T03:44:59;99975.78;;;12.35;71.24
50702;BME280;36670;50.094;8.496;2023-11-19T03:47:25;99972.81;;;12.62;70.33
50702;BME280;36670;50.094;8.496;2023-11-19T03:49:50;99978.31;;;12.68;70.45
50702;BME280;36670;50.094;8.496;2023-11-19T03:52:17;99983.06;;;12.67;70.12
50702;BME280;36670;50.094;8.496;2023-11-19T03:54:42;99969.47;;;12.66;69.79
50702;BME280;36670;50.094;8.496;2023-11-19T03:57:08;99960.88;;;12.57;70.48
50702;BME280;36670;50.094;8.496;2023-11-19T03:59:35;99958.94;;;12.57;70.49
50702;BME280;36670;50.094;8.496;2023-11-19T04:02:01;99942.59;;;12.66;69.90
50702;BME280;36670;50.094;8.496;2023-11-19T04:04:27;99953.97;;;12.70;70.27
50702;BME280;36670;50.094;8.496;2023-11-19T04:06:53;99957.53;;;12.55;70.37
50702;BME280;36670;50.094;8.496;2023-11-19T04:09:19;99953.59;;;12.20;70.96
50702;BME280;36670;50.094;8.496;2023-11-19T04:11:44;99943.41;;;12.41;71.17
50702;BME280;36670;50.094;8.496;2023-11-19T04:14:14;99936.75;;;12.37;71.01
50702;BME280;36670;50.094;8.496;2023-11-19T04:16:40;99938.16;;;12.44;71.31
50702;BME280;36670;50.094;8.496;2023-11-19T04:19:06;99941.47;;;12.46;70.79
50702;BME280;36670;50.094;8.496;2023-11-19T04:21:32;99943.13;;;12.58;71.04
50702;BME280;36670;50.094;8.496;2023-11-19T04:23:57;99937.91;;;12.51;70.88
50702;BME280;36670;50.094;8.496;2023-11-19T04:26:23;99948.09;;;12.35;71.87
50702;BME280;36670;50.094;8.496;2023-11-19T04:28:48;99956.16;;;12.47;71.73
50702;BME280;36670;50.094;8.496;2023-11-19T04:31:15;99937.81;;;12.25;72.24
50702;BME280;36670;50.094;8.496;2023-11-19T04:33:41;99926.50;;;12.42;71.37
50702;BME280;36670;50.094;8.496;2023-11-19T04:36:07;99923.47;;;12.44;71.37
50702;BME280;36670;50.094;8.496;2023-11-19T04:38:33;99922.13;;;12.57;71.65
50702;BME280;36670;50.094;8.496;2023-11-19T04:40:59;99912.91;;;12.20;71.77
50702;BME280;36670;50.094;8.496;2023-11-19T04:43:28;99917.63;;;12.30;72.74
50702;BME280;36670;50.094;8.496;2023-11-19T04:45:56;99915.69;;;12.15;73.20
50702;BME280;36670;50.094;8.496;2023-11-19T04:48:23;99931.50;;;12.40;72.56
50702;BME280;36670;50.094;8.496;2023-11-19T04:50:51;99920.72;;;12.59;71.77
50702;BME280;36670;50.094;8.496;2023-11-19T04:53:18;99929.56;;;12.41;72.56
50702;BME280;36670;50.094;8.496;2023-11-19T04:55:43;99932.63;;;12.44;72.36
50702;BME280;36670;50.094;8.496;2023-11-19T04:58:08;99934.00;;;12.68;71.63
50702;BME280;36670;50.094;8.496;2023-11-19T05:00:34;99928.75;;;12.71;72.18
50702;BME280;36670;50.094;8.496;2023-11-19T05:02:59;99935.13;;;12.77;72.26
50702;BME280;36670;50.094;8.496;2023-11-19T05:05:25;99932.91;;;12.58;72.16
50702;BME280;36670;50.094;8.496;2023-11-19T05:07:50;99932.06;;;12.73;72.46
50702;BME280;36670;50.094;8.496;2023-11-19T05:10:16;99955.09;;;12.74;71.77
50702;BME280;36670;50.094;8.496;2023-11-19T05:12:44;99945.94;;;12.73;72.13
50702;BME280;36670;50.094;8.496;2023-11-19T05:15:12;99946.22;;;12.82;71.53
50702;BME280;36670;50.094;8.496;2023-11-19T05:17:38;99932.91;;;13.00;71.33
50702;BME280;36670;50.094;8.496;2023-11-19T05:20:06;99934.28;;;12.66;71.81
50702;BME280;36670;50.094;8.496;2023-11-19T05:22:41;99926.00;;;12.92;71.83
50702;BME280;36670;50.094;8.496;2023-11-19T05:25:07;99921.81;;;13.00;71.27
50702;BME280;36670;50.094;8.496;2023-11-19T05:27:34;99939.00;;;12.91;71.59
50702;BME280;36670;50.094;8.496;2023-11-19T05:30:01;99946.50;;;13.11;70.95
50702;BME280;36670;50.094;8.496;2023-11-19T05:32:29;99945.09;;;12.88;70.80
50702;BME280;36670;50.094;8.496;2023-11-19T05:34:55;99936.78;;;12.83;71.52
50702;BME280;36670;50.094;8.496;2023-11-19T05:37:20;99926.00;;;12.92;71.66
50702;BME280;36670;50.094;8.496;2023-11-19T05:39:46;99913.00;;;12.82;71.53
50702;BME280;36670;50.094;8.496;2023-11-19T05:42:11;99905.47;;;12.93;71.43
50702;BME280;36670;50.094;8.496;2023-11-19T05:44:37;99914.38;;;12.85;72.18
50702;BME280;36670;50.094;8.496;2023-11-19T05:47:03;99916.28;;;13.10;71.07
50702;BME280;36670;50.094;8.496;2023-11-19T05:49:29;99914.63;;;13.14;70.71
50702;BME280;36670;50.094;8.496;2023-11-19T05:51:54;99930.72;;;12.96;71.72
50702;BME280;36670;50.094;8.496;2023-11-19T05:54:21;99914.59;;;13.24;71.44
50702;BME280;36670;50.094;8.496;2023-11-19T05:56:49;99919.34;;;12.98;71.59
50702;BME280;36670;50.094;8.496;2023-11-19T05:59:15;99922.63;;;13.21;70.58
50702;BME280;36670;50.094;8.496;2023-11-19T06:01:43;99926.78;;;13.23;70.84
50702;BME280;36670;50.094;8.496;2023-11-19T06:04:09;99935.94;;;13.34;70.80
50702;BME280;36670;50.094;8.496;2023-11-19T06:06:36;99932.63;;;13.27;70.36
50702;BME280;36670;50.094;8.496;2023-11-19T06:09:05;99928.47;;;13.19;71.38
50702;BME280;36670;50.094;8.496;2023-11-19T06:11:34;99942.06;;;13.36;70.19
50702;BME280;36670;50.094;8.496;2023-11-19T06:14:01;99935.09;;;13.39;70.46
50702;BME280;36670;50.094;8.496;2023-11-19T06:16:27;99936.22;;;13.48;69.96
50702;BME280;36670;50.094;8.496;2023-11-19T06:18:52;99933.47;;;13.38;70.95
50702;BME280;36670;50.094;8.496;2023-11-19T06:21:18;99940.13;;;13.42;70.07
50702;BME280;36670;50.094;8.496;2023-11-19T06:23:44;99933.44;;;13.27;69.87
50702;BME280;36670;50.094;8.496;2023-11-19T06:26:13;99937.63;;;13.40;70.17
50702;BME280;36670;50.094;8.496;2023-11-19T06:28:39;99940.91;;;13.53;69.99
50702;BME280;36670;50.094;8.496;2023-11-19T06:31:07;99940.59;;;13.59;69.77
50702;BME280;36670;50.094;8.496;2023-11-19T06:33:32;99945.88;;;13.66;70.14
50702;BME280;36670;50.094;8.496;2023-11-19T06:35:59;99941.69;;;13.69;69.41
50702;BME280;36670;50.094;8.496;2023-11-19T06:38:25;99942.22;;;13.76;69.94
50702;BME280;36670;50.094;8.496;2023-11-19T06:40:50;99948.91;;;13.70;69.78
50702;BME280;36670;50.094;8.496;2023-11-19T06:43:16;99954.66;;;13.94;69.04
50702;BME280;36670;50.094;8.496;2023-11-19T06:45:43;99949.03;;;14.04;69.29
50702;BME280;36670;50.094;8.496;2023-11-19T06:48:09;99949.91;;;14.05;69.07
50702;BME280;36670;50.094;8.496;2023-11-19T06:50:34;99943.69;;;14.18;68.48
50702;BME280;36670;50.094;8.496;2023-11-19T06:52:59;99953.19;;;14.12;68.95
50702;BME280;36670;50.094;8.496;2023-11-19T06:55:26;99944.56;;;14.19;68.39
50702;BME280;36670;50.094;8.496;2023-11-19T06:57:51;99947.03;;;14.20;67.67
50702;BME280;36670;50.094;8.496;2023-11-19T07:00:17;99939.38;;;13.96;68.72
50702;BME280;36670;50.094;8.496;2023-11-19T07:02:43;99954.94;;;13.92;68.52
50702;BME280;36670;50.094;8.496;2023-11-19T07:05:09;99947.94;;;14.05;69.11
50702;BME280;36670;50.094;8.496;2023-11-19T07:07:34;99952.66;;;14.05;69.25
50702;BME280;36670;50.094;8.496;2023-11-19T07:10:00;99943.56;;;13.94;68.98
50702;BME280;36670;50.094;8.496;2023-11-19T07:12:27;99949.38;;;13.92;69.21
50702;BME280;36670;50.094;8.496;2023-11-19T07:14:52;99940.53;;;13.85;68.82
50702;BME280;36670;50.094;8.496;2023-11-19T07:17:18;99945.75;;;14.02;69.11
50702;BME280;36670;50.094;8.496;2023-11-19T07:19:45;99944.72;;;13.77;70.03
50702;BME280;36670;50.094;8.496;2023-11-19T07:22:11;99954.56;;;14.09;68.98
50702;BME280;36670;50.094;8.496;2023-11-19T07:24:39;99961.91;;;14.45;68.37
50702;BME280;36670;50.094;8.496;2023-11-19T07:27:04;99964.91;;;14.54;67.48
50702;BME280;36670;50.094;8.496;2023-11-19T07:29:29;99961.22;;;14.68;67.66
50702;BME280;36670;50.094;8.496;2023-11-19T07:31:56;99959.28;;;14.69;67.85
50702;BME280;36670;50.094;8.496;2023-11-19T07:34:22;99964.50;;;14.76;67.50
50702;BME280;36670;50.094;8.496;2023-11-19T07:36:47;99957.25;;;14.80;67.42
50702;BME280;36670;50.094;8.496;2023-11-19T07:39:12;99960.22;;;14.44;68.01
50702;BME280;36670;50.094;8.496;2023-11-19T07:41:38;99962.59;;;14.21;68.82
50702;BME280;36670;50.094;8.496;2023-11-19T07:44:03;99956.03;;;13.96;68.30
50702;BME280;36670;50.094;8.496;2023-11-19T07:46:29;99955.06;;;14.22;68.74
50702;BME280;36670;50.094;8.496;2023-11-19T07:48:54;99945.09;;;14.21;68.31
50702;BME280;36670;50.094;8.496;2023-11-19T07:51:19;99958.16;;;14.15;68.69
50702;BME280;36670;50.094;8.496;2023-11-19T07:53:48;99955.63;;;14.24;68.22
50702;BME280;36670;50.094;8.496;2023-11-19T07:56:14;99972.53;;;14.27;69.02
50702;BME280;36670;50.094;8.496;2023-11-19T07:58:39;99976.63;;;14.45;68.75
50702;BME280;36670;50.094;8.496;2023-11-19T08:01:05;99973.47;;;14.62;68.01
50702;BME280;36670;50.094;8.496;2023-11-19T08:03:30;99969.59;;;14.63;68.39
50702;BME280;36670;50.094;8.496;2023-11-19T08:05:56;99983.75;;;14.62;69.25
50702;BME280;36670;50.094;8.496;2023-11-19T08:08:24;99977.84;;;14.74;68.62
50702;BME280;36670;50.094;8.496;2023-11-19T08:10:50;99969.50;;;14.74;69.09
50702;BME280;36670;50.094;8.496;2023-11-19T08:13:17;99970.25;;;14.90;68.91
50702;BME280;36670;50.094;8.496;2023-11-19T08:15:43;99975.94;;;15.09;68.79
50702;BME280;36670;50.094;8.496;2023-11-19T08:18:08;99983.34;;;15.18;68.53
50702;BME280;36670;50.094;8.496;2023-11-19T08:20:34;99981.09;;;15.21;69.29
50702;BME280;36670;50.094;8.496;2023-11-19T08:22:59;99969.38;;;15.53;68.14
50702;BME280;36670;50.094;8.496;2023-11-19T08:25:25;99975.69;;;15.34;68.38
50702;BME280;36670;50.094;8.496;2023-11-19T08:27:50;99972.69;;;14.96;68.64
50702;BME280;36670;50.094;8.496;2023-11-19T08:30:15;99990.03;;;14.78;69.75
50702;BME280;36670;50.094;8.496;2023-11-19T08:32:41;99981.34;;;14.45;70.33
50702;BME280;36670;50.094;8.496;2023-11-19T08:35:06;99988.44;;;14.72;69.93
50702;BME280;36670;50.094;8.496;2023-11-19T08:37:32;99979.16;;;14.87;70.04
50702;BME280;36670;50.094;8.496;2023-11-19T08:39:58;99990.88;;;15.47;69.41
50702;BME280;36670;50.094;8.496;2023-11-19T08:42:23;99986.47;;;15.12;69.92
50702;BME280;36670;50.094;8.496;2023-11-19T08:44:49;99992.88;;;15.07;69.94
50702;BME280;36670;50.094;8.496;2023-11-19T08:47:16;99993.88;;;14.87;70.59
50702;BME280;36670;50.094;8.496;2023-11-19T08:49:43;99991.88;;;14.93;70.67
50702;BME280;36670;50.094;8.496;2023-11-19T08:52:09;100000.28;;;15.22;70.53
50702;BME280;36670;50.094;8.496;2023-11-19T08:54:36;99987.22;;;15.52;69.87
50702;BME280;36670;50.094;8.496;2023-11-19T08:57:01;99996.88;;;15.30;70.07
50702;BME280;36670;50.094;8.496;2023-11-19T08:59:28;99992.53;;;15.48;69.90
50702;BME280;36670;50.094;8.496;2023-11-19T09:01:53;99994.28;;;15.39;69.72
50702;BME280;36670;50.094;8.496;2023-11-19T09:04:19;99978.06;;;15.76;69.40
50702;BME280;36670;50.094;8.496;2023-11-19T09:06:47;99986.56;;;15.90;68.94
50702;BME280;36670;50.094;8.496;2023-11-19T09:09:12;99986.44;;;16.00;68.90
50702;BME280;36670;50.094;8.496;2023-11-19T09:11:37;99971.56;;;16.10;68.94
50702;BME280;36670;50.094;8.496;2023-11-19T09:14:03;99980.63;;;16.20;68.40
50702;BME280;36670;50.094;8.496;2023-11-19T09:16:29;99973.22;;;16.11;68.44
50702;BME280;36670;50.094;8.496;2023-11-19T09:18:55;99969.34;;;16.31;68.42
50702;BME280;36670;50.094;8.496;2023-11-19T09:21:20;99972.22;;;16.45;67.67
50702;BME280;36670;50.094;8.496;2023-11-19T09:23:45;99969.72;;;16.43;67.95
50702;BME280;36670;50.094;8.496;2023-11-19T09:26:13;99961.72;;;16.17;68.33
50702;BME280;36670;50.094;8.496;2023-11-19T09:28:38;99969.81;;;16.57;68.16
50702;BME280;36670;50.094;8.496;2023-11-19T09:31:13;99977.13;;;16.53;68.19
50702;BME280;36670;50.094;8.496;2023-11-19T09:33:38;99967.00;;;16.38;68.36
50702;BME280;36670;50.094;8.496;2023-11-19T09:36:04;99973.59;;;16.66;67.49
50702;BME280;36670;50.094;8.496;2023-11-19T09:38:29;99987.31;;;17.01;66.96
50702;BME280;36670;50.094;8.496;2023-11-19T09:40:54;99967.56;;;16.97;66.92
50702;BME280;36670;50.094;8.496;2023-11-19T09:43:20;99987.19;;;17.25;66.27
50702;BME280;36670;50.094;8.496;2023-11-19T09:45:49;99977.47;;;17.03;66.68
50702;BME280;36670;50.094;8.496;2023-11-19T09:48:19;99987.63;;;16.99;66.55
50702;BME280;36670;50.094;8.496;2023-11-19T09:50:48;99985.25;;;16.87;67.08
50702;BME280;36670;50.094;8.496;2023-11-19T09:53:14;99985.56;;;16.86;66.67
50702;BME280;36670;50.094;8.496;2023-11-19T09:55:40;99975.69;;;16.55;67.01
50702;BME280;36670;50.094;8.496;2023-11-19T09:58:07;99969.44;;;16.83;66.33
50702;BME280;36670;50.094;8.496;2023-11-19T10:00:33;99972.63;;;16.95;66.42
50702;BME280;36670;50.094;8.496;2023-11-19T10:02:59;99968.25;;;16.89;66.31
50702;BME280;36670;50.094;8.496;2023-11-19T10:05:25;99978.53;;;16.69;66.18
50702;BME280;36670;50.094;8.496;2023-11-19T10:07:51;99972.28;;;16.78;66.34
50702;BME280;36670;50.094;8.496;2023-11-19T10:10:16;99973.94;;;16.98;66.68
50702;BME280;36670;50.094;8.496;2023-11-19T10:12:45;99982.91;;;17.14;66.29
50702;BME280;36670;50.094;8.496;2023-11-19T10:15:19;99972.81;;;16.80;67.08
50702;BME280;36670;50.094;8.496;2023-11-19T10:17:45;99971.53;;;17.10;66.35
50702;BME280;36670;50.094;8.496;2023-11-19T10:20:10;99964.78;;;17.30;66.36
50702;BME280;36670;50.094;8.496;2023-11-19T10:22:39;99959.59;;;17.23;66.62
50702;BME280;36670;50.094;8.496;2023-11-19T10:25:24;99956.25;;;17.68;65.62
50702;BME280;36670;50.094;8.496;2023-11-19T10:27:50;99960.41;;;17.71;62.98
50702;BME280;36670;50.094;8.496;2023-11-19T10:30:29;99958.09;;;17.73;63.90
50702;BME280;36670;50.094;8.496;2023-11-19T10:33:05;99975.75;;;17.40;62.54
50702;BME280;36670;50.094;8.496;2023-11-19T10:35:32;99977.78;;;17.02;60.78
50702;BME280;36670;50.094;8.496;2023-11-19T10:38:13;99971.00;;;16.70;60.55
50702;BME280;36670;50.094;8.496;2023-11-19T10:40:40;99968.53;;;16.68;60.64
50702;BME280;36670;50.094;8.496;2023-11-19T10:43:06;99969.03;;;17.09;62.15
50702;BME280;36670;50.094;8.496;2023-11-19T10:45:33;99957.72;;;17.19;61.36
50702;BME280;36670;50.094;8.496;2023-11-19T10:47:59;99957.66;;;17.52;61.38
50702;BME280;36670;50.094;8.496;2023-11-19T10:50:25;99941.66;;;17.57;60.16
50702;BME280;36670;50.094;8.496;2023-11-19T10:52:55;99945.28;;;17.58;58.72
50702;BME280;36670;50.094;8.496;2023-11-19T10:55:27;99958.63;;;17.61;59.48
50702;BME280;36670;50.094;8.496;2023-11-19T10:57:52;99939.09;;;17.75;58.37
50702;BME280;36670;50.094;8.496;2023-11-19T11:00:22;99954.28;;;17.83;59.16
50702;BME280;36670;50.094;8.496;2023-11-19T11:02:50;99935.47;;;17.47;58.12
50702;BME280;36670;50.094;8.496;2023-11-19T11:05:21;99932.06;;;17.78;57.71
50702;BME280;36670;50.094;8.496;2023-11-19T11:07:48;99930.16;;;17.45;54.34
50702;BME280;36670;50.094;8.496;2023-11-19T11:10:16;99928.50;;;16.97;54.85
50702;BME280;36670;50.094;8.496;2023-11-19T11:12:43;99936.97;;;16.54;54.25
50702;BME280;36670;50.094;8.496;2023-11-19T11:15:10;99933.00;;;16.41;55.84
50702;BME280;36670;50.094;8.496;2023-11-19T11:17:39;99929.00;;;16.47;55.37
50702;BME280;36670;50.094;8.496;2023-11-19T11:20:05;99922.66;;;16.61;55.12
50702;BME280;36670;50.094;8.496;2023-11-19T11:22:44;99933.66;;;16.33;54.57
50702;BME280;36670;50.094;8.496;2023-11-19T11:28:23;99934.19;;;16.16;54.85
50702;BME280;36670;50.094;8.496;2023-11-19T11:31:09;99928.53;;;16.21;53.99
50702;BME280;36670;50.094;8.496;2023-11-19T11:36:53;99941.53;;;16.07;54.64
50702;BME280;36670;50.094;8.496;2023-11-19T11:39:24;99925.03;;;16.10;54.61
50702;BME280;36670;50.094;8.496;2023-11-19T11:45:06;99930.72;;;16.62;54.76
50702;BME280;36670;50.094;8.496;2023-11-19T11:50:12;99932.66;;;16.81;54.40
50702;BME280;36670;50.094;8.496;2023-11-19T11:55:51;99924.91;;;16.97;54.17
50702;BME280;36670;50.094;8.496;2023-11-19T11:58:30;99912.69;;;17.39;53.61
50702;BME280;36670;50.094;8.496;2023-11-19T12:01:01;99903.50;;;17.53;53.83
50702;BME280;36670;50.094;8.496;2023-11-19T12:03:28;99912.28;;;17.46;52.63
50702;BME280;36670;50.094;8.496;2023-11-19T12:05:55;99915.69;;;17.43;51.89
50702;BME280;36670;50.094;8.496;2023-11-19T12:08:26;99918.03;;;17.08;53.42
50702;BME280;36670;50.094;8.496;2023-11-19T12:10:52;99910.28;;;17.05;52.84
50702;BME280;36670;50.094;8.496;2023-11-19T12:13:19;99913.09;;;17.19;53.82
50702;BME280;36670;50.094;8.496;2023-11-19T12:18:23;99906.63;;;17.79;52.16
50702;BME280;36670;50.094;8.496;2023-11-19T12:20:48;99914.47;;;17.63;52.24
50702;BME280;36670;50.094;8.496;2023-11-19T12:23:14;99903.75;;;17.56;52.00
50702;BME280;36670;50.094;8.496;2023-11-19T12:25:40;99909.91;;;17.67;52.36
50702;BME280;36670;50.094;8.496;2023-11-19T12:28:14;99899.59;;;17.82;51.49
50702;BME280;36670;50.094;8.496;2023-11-19T12:30:42;99895.56;;;17.60;51.83
50702;BME280;36670;50.094;8.496;2023-11-19T12:33:08;99896.59;;;17.50;51.59
50702;BME280;36670;50.094;8.496;2023-11-19T12:35:40;99899.38;;;17.50;51.79
50702;BME280;36670;50.094;8.496;2023-11-19T12:38:08;99894.00;;;17.54;51.55
50702;BME280;36670;50.094;8.496;2023-11-19T12:40:33;99882.44;;;17.47;51.86
50702;BME280;36670;50.094;8.496;2023-11-19T12:42:59;99884.38;;;17.60;51.74
50702;BME280;36670;50.094;8.496;2023-11-19T12:45:34;99874.97;;;17.98;51.70
50702;BME280;36670;50.094;8.496;2023-11-19T12:48:09;99871.06;;;17.99;49.51
50702;BME280;36670;50.094;8.496;2023-11-19T12:50:56;99875.19;;;17.87;51.26
50702;BME280;36670;50.094;8.496;2023-11-19T12:53:23;99870.25;;;17.56;50.67
50702;BME280;36670;50.094;8.496;2023-11-19T12:55:50;99866.50;;;17.61;51.76
50702;BME280;36670;50.094;8.496;2023-11-19T13:01:05;99861.97;;;17.51;50.28
50702;BME280;36670;50.094;8.496;2023-11-19T13:03:35;99861.66;;;17.39;50.92
50702;BME280;36670;50.094;8.496;2023-11-19T13:06:05;99858.63;;;17.35;50.93
50702;BME280;36670;50.094;8.496;2023-11-19T13:08:40;99854.00;;;17.72;51.56
50702;BME280;36670;50.094;8.496;2023-11-19T13:11:06;99862.16;;;17.97;51.22
50702;BME280;36670;50.094;8.496;2023-11-19T13:13:33;99850.78;;;17.79;50.68
50702;BME280;36670;50.094;8.496;2023-11-19T13:16:15;99861.31;;;18.10;51.06